sensor_id;sensor_type;location;lat;lon;timestamp;pressure;altitude;pressure_sealevel;temperature;humidity
18819;BME280;9537;45.594;9.294;2023-06-01T00:00:37;99826.72;;;20.90;69.58
18819;BME280;9537;45.594;9.294;2023-06-01T00:01:38;99826.00;;;20.95;69.49
18819;BME280;9537;45.594;9.294;2023-06-01T00:02:41;99824.13;;;20.95;69.46
18819;BME280;9537;45.594;9.294;2023-06-01T00:03:42;99825.16;;;20.94;69.29
18819;BME280;9537;45.594;9.294;2023-06-01T00:04:45;99828.44;;;20.96;69.43
18819;BME280;9537;45.594;9.294;2023-06-01T00:05:46;99829.25;;;20.97;69.09
18819;BME280;9537;45.594;9.294;2023-06-01T00:06:47;99823.88;;;20.97;69.41
18819;BME280;9537;45.594;9.294;2023-06-01T00:07:48;99827.63;;;20.96;69.36
18819;BME280;9537;45.594;9.294;2023-06-01T00:08:51;99819.56;;;20.96;69.64
18819;BME280;9537;45.594;9.294;2023-06-01T00:09:52;99826.47;;;20.91;69.96
18819;BME280;9537;45.594;9.294;2023-06-01T00:10:55;99828.81;;;20.88;70.54
18819;BME280;9537;45.594;9.294;2023-06-01T00:11:56;99826.38;;;20.86;70.49
18819;BME280;9537;45.594;9.294;2023-06-01T00:12:58;99823.09;;;20.84;70.75
18819;BME280;9537;45.594;9.294;2023-06-01T00:13:59;99817.94;;;20.83;70.70
18819;BME280;9537;45.594;9.294;2023-06-01T00:15:01;99823.09;;;20.84;70.65
18819;BME280;9537;45.594;9.294;2023-06-01T00:16:04;99819.25;;;20.80;70.63
18819;BME280;9537;45.594;9.294;2023-06-01T00:17:06;99817.94;;;20.83;70.45
18819;BME280;9537;45.594;9.294;2023-06-01T00:18:08;99820.63;;;20.83;69.94
18819;BME280;9537;45.594;9.294;2023-06-01T00:19:13;99817.63;;;20.79;69.96
18819;BME280;9537;45.594;9.294;2023-06-01T00:20:14;99820.31;;;20.79;69.50
18819;BME280;9537;45.594;9.294;2023-06-01T00:21:16;99825.44;;;20.81;69.35
18819;BME280;9537;45.594;9.294;2023-06-01T00:22:17;99822.50;;;20.82;69.22
18819;BME280;9537;45.594;9.294;2023-06-01T00:23:19;99817.88;;;20.78;69.15
18819;BME280;9537;45.594;9.294;2023-06-01T00:24:21;99814.00;;;20.74;69.34
18819;BME280;9537;45.594;9.294;2023-06-01T00:25:23;99812.72;;;20.76;69.09
18819;BME280;9537;45.594;9.294;2023-06-01T00:26:25;99814.00;;;20.74;69.43
18819;BME280;9537;45.594;9.294;2023-06-01T00:27:27;99824.63;;;20.68;69.84
18819;BME280;9537;45.594;9.294;2023-06-01T00:28:28;99823.22;;;20.66;70.27
18819;BME280;9537;45.594;9.294;2023-06-01T00:29:30;99818.31;;;20.63;70.60
18819;BME280;9537;45.594;9.294;2023-06-01T00:30:31;99823.13;;;20.61;70.80
18819;BME280;9537;45.594;9.294;2023-06-01T00:31:33;99818.91;;;20.65;70.86
18819;BME280;9537;45.594;9.294;2023-06-01T00:32:34;99818.56;;;20.61;71.10
18819;BME280;9537;45.594;9.294;2023-06-01T00:33:36;99820.66;;;20.59;71.14
18819;BME280;9537;45.594;9.294;2023-06-01T00:34:37;99819.63;;;20.60;70.92
18819;BME280;9537;45.594;9.294;2023-06-01T00:35:39;99819.28;;;20.57;70.95
18819;BME280;9537;45.594;9.294;2023-06-01T00:36:40;99821.38;;;20.55;70.70
18819;BME280;9537;45.594;9.294;2023-06-01T00:37:42;99818.13;;;20.53;70.47
18819;BME280;9537;45.594;9.294;2023-06-01T00:38:43;99821.38;;;20.55;70.36
18819;BME280;9537;45.594;9.294;2023-06-01T00:39:45;99813.91;;;20.57;69.91
18819;BME280;9537;45.594;9.294;2023-06-01T00:40:46;99816.25;;;20.53;69.80
18819;BME280;9537;45.594;9.294;2023-06-01T00:41:52;99814.59;;;20.52;69.59
18819;BME280;9537;45.594;9.294;2023-06-01T00:42:52;99813.19;;;20.50;69.93
18819;BME280;9537;45.594;9.294;2023-06-01T00:43:54;99817.75;;;20.49;69.71
18819;BME280;9537;45.594;9.294;2023-06-01T00:44:55;99815.28;;;20.47;69.78
18819;BME280;9537;45.594;9.294;2023-06-01T00:45:59;99815.97;;;20.43;69.91
18819;BME280;9537;45.594;9.294;2023-06-01T00:47:00;99812.84;;;20.46;69.97
18819;BME280;9537;45.594;9.294;2023-06-01T00:48:03;99808.28;;;20.46;69.91
18819;BME280;9537;45.594;9.294;2023-06-01T00:49:04;99817.63;;;20.44;70.24
18819;BME280;9537;45.594;9.294;2023-06-01T00:50:07;99809.31;;;20.45;70.45
18819;BME280;9537;45.594;9.294;2023-06-01T00:51:08;99808.50;;;20.45;70.83
18819;BME280;9537;45.594;9.294;2023-06-01T00:52:10;99815.97;;;20.43;71.25
18819;BME280;9537;45.594;9.294;2023-06-01T00:53:16;99810.97;;;20.46;71.35
18819;BME280;9537;45.594;9.294;2023-06-01T00:54:17;99814.22;;;20.48;71.43
18819;BME280;9537;45.594;9.294;2023-06-01T00:55:20;99817.50;;;20.51;71.35
18819;BME280;9537;45.594;9.294;2023-06-01T00:56:21;99811.69;;;20.54;71.27
18819;BME280;9537;45.594;9.294;2023-06-01T00:57:25;99818.56;;;20.50;71.71
18819;BME280;9537;45.594;9.294;2023-06-01T00:58:27;99817.63;;;20.44;72.07
18819;BME280;9537;45.594;9.294;2023-06-01T00:59:29;99814.47;;;20.47;71.92
18819;BME280;9537;45.594;9.294;2023-06-01T01:00:30;99809.91;;;20.47;71.74
18819;BME280;9537;45.594;9.294;2023-06-01T01:01:32;99809.78;;;20.42;71.41
18819;BME280;9537;45.594;9.294;2023-06-01T01:02:35;99811.91;;;20.40;71.13
18819;BME280;9537;45.594;9.294;2023-06-01T01:03:37;99817.97;;;20.36;71.15
18819;BME280;9537;45.594;9.294;2023-06-01T01:04:39;99809.66;;;20.37;71.21
18819;BME280;9537;45.594;9.294;2023-06-01T01:05:41;99814.47;;;20.35;71.19
18819;BME280;9537;45.594;9.294;2023-06-01T01:06:52;99815.28;;;20.36;70.99
18819;BME280;9537;45.594;9.294;2023-06-01T01:08:01;99808.50;;;20.33;71.26
18819;BME280;9537;45.594;9.294;2023-06-01T01:09:17;99817.38;;;20.34;71.19
18819;BME280;9537;45.594;9.294;2023-06-01T01:10:29;99815.28;;;20.36;71.00
18819;BME280;9537;45.594;9.294;2023-06-01T01:11:32;99815.75;;;20.33;71.13
18819;BME280;9537;45.594;9.294;2023-06-01T01:12:45;99811.44;;;20.32;71.05
18819;BME280;9537;45.594;9.294;2023-06-01T01:13:50;99806.09;;;20.32;71.27
18819;BME280;9537;45.594;9.294;2023-06-01T01:14:58;99814.94;;;20.32;71.37
18819;BME280;9537;45.594;9.294;2023-06-01T01:16:03;99815.97;;;20.31;71.49
18819;BME280;9537;45.594;9.294;2023-06-01T01:17:13;99810.25;;;20.28;71.81
18819;BME280;9537;45.594;9.294;2023-06-01T01:18:22;99809.31;;;20.22;71.92
18819;BME280;9537;45.594;9.294;2023-06-01T01:19:38;99808.72;;;20.20;71.87
18819;BME280;9537;45.594;9.294;2023-06-01T01:20:44;99813.16;;;20.14;71.82
18819;BME280;9537;45.594;9.294;2023-06-01T01:21:57;99812.94;;;20.16;71.99
18819;BME280;9537;45.594;9.294;2023-06-01T01:23:38;99812.59;;;20.12;72.37
18819;BME280;9537;45.594;9.294;2023-06-01T01:24:51;99816.56;;;20.10;72.70
18819;BME280;9537;45.594;9.294;2023-06-01T01:26:14;99806.84;;;20.09;73.10
18819;BME280;9537;45.594;9.294;2023-06-01T01:27:23;99803.81;;;20.05;73.08
18819;BME280;9537;45.594;9.294;2023-06-01T01:28:41;99806.03;;;20.08;73.13
18819;BME280;9537;45.594;9.294;2023-06-01T01:29:44;99810.13;;;20.11;73.57
18819;BME280;9537;45.594;9.294;2023-06-01T01:30:46;99803.34;;;20.08;73.87
18819;BME280;9537;45.594;9.294;2023-06-01T01:31:49;99801.75;;;20.07;74.09
18819;BME280;9537;45.594;9.294;2023-06-01T01:32:50;99804.41;;;20.07;74.06
18819;BME280;9537;45.594;9.294;2023-06-01T01:33:54;99799.53;;;20.04;74.24
18819;BME280;9537;45.594;9.294;2023-06-01T01:34:57;99799.28;;;20.06;74.47
18819;BME280;9537;45.594;9.294;2023-06-01T01:35:59;99799.06;;;20.07;74.08
18819;BME280;9537;45.594;9.294;2023-06-01T01:37:02;99802.56;;;20.08;74.05
18819;BME280;9537;45.594;9.294;2023-06-01T01:38:03;99803.34;;;20.08;74.33
18819;BME280;9537;45.594;9.294;2023-06-01T01:39:05;99805.69;;;20.05;74.27
18819;BME280;9537;45.594;9.294;2023-06-01T01:40:08;99803.25;;;20.03;74.14
18819;BME280;9537;45.594;9.294;2023-06-01T01:41:10;99810.00;;;20.06;74.36
18819;BME280;9537;45.594;9.294;2023-06-01T01:42:11;99805.69;;;20.05;74.27
18819;BME280;9537;45.594;9.294;2023-06-01T01:43:13;99806.50;;;20.05;74.10
18819;BME280;9537;45.594;9.294;2023-06-01T01:44:15;99803.00;;;20.05;74.17
18819;BME280;9537;45.594;9.294;2023-06-01T01:45:18;99798.47;;;20.05;73.70
18819;BME280;9537;45.594;9.294;2023-06-01T01:46:24;99799.19;;;20.00;73.70
18819;BME280;9537;45.594;9.294;2023-06-01T01:47:32;99799.84;;;19.96;74.22
18819;BME280;9537;45.594;9.294;2023-06-01T01:48:39;99805.22;;;19.96;74.03
18819;BME280;9537;45.594;9.294;2023-06-01T01:49:43;99804.63;;;19.94;74.08
18819;BME280;9537;45.594;9.294;2023-06-01T01:50:50;99802.19;;;19.92;74.03
18819;BME280;9537;45.594;9.294;2023-06-01T01:51:57;99802.75;;;19.94;74.38
18819;BME280;9537;45.594;9.294;2023-06-01T01:53:05;99802.19;;;19.92;74.41
18819;BME280;9537;45.594;9.294;2023-06-01T01:54:08;99799.25;;;19.94;74.45
18819;BME280;9537;45.594;9.294;2023-06-01T01:55:11;99804.28;;;19.90;74.70
18819;BME280;9537;45.594;9.294;2023-06-01T01:56:17;99806.34;;;19.88;75.08
18819;BME280;9537;45.594;9.294;2023-06-01T01:57:19;99801.91;;;19.82;75.06
18819;BME280;9537;45.594;9.294;2023-06-01T01:58:23;99802.16;;;19.80;75.23
18819;BME280;9537;45.594;9.294;2023-06-01T01:59:28;99797.03;;;19.79;75.09
18819;BME280;9537;45.594;9.294;2023-06-01T02:00:30;99796.66;;;19.75;75.17
18819;BME280;9537;45.594;9.294;2023-06-01T02:01:32;99802.03;;;19.75;74.98
18819;BME280;9537;45.594;9.294;2023-06-01T02:02:35;99803.09;;;19.74;75.06
18819;BME280;9537;45.594;9.294;2023-06-01T02:03:35;99800.75;;;19.78;74.78
18819;BME280;9537;45.594;9.294;2023-06-01T02:04:39;99797.72;;;19.74;75.10
18819;BME280;9537;45.594;9.294;2023-06-01T02:05:40;99799.56;;;19.74;75.19
18819;BME280;9537;45.594;9.294;2023-06-01T02:06:42;99805.16;;;19.72;75.02
18819;BME280;9537;45.594;9.294;2023-06-01T02:07:44;99801.69;;;19.72;75.19
18819;BME280;9537;45.594;9.294;2023-06-01T02:08:46;99793.41;;;19.73;75.04
18819;BME280;9537;45.594;9.294;2023-06-01T02:09:47;99801.44;;;19.73;74.67
18819;BME280;9537;45.594;9.294;2023-06-01T02:10:49;99805.16;;;19.72;74.44
18819;BME280;9537;45.594;9.294;2023-06-01T02:11:50;99797.00;;;19.67;74.64
18819;BME280;9537;45.594;9.294;2023-06-01T02:12:52;99793.72;;;19.65;74.86
18819;BME280;9537;45.594;9.294;2023-06-01T02:13:52;99797.06;;;19.61;74.96
18819;BME280;9537;45.594;9.294;2023-06-01T02:14:56;99789.38;;;19.64;74.59
18819;BME280;9537;45.594;9.294;2023-06-01T02:15:57;99795.66;;;19.58;74.60
18819;BME280;9537;45.594;9.294;2023-06-01T02:16:59;99793.66;;;19.53;74.42
18819;BME280;9537;45.594;9.294;2023-06-01T02:18:01;99796.19;;;19.48;74.96
18819;BME280;9537;45.594;9.294;2023-06-01T02:19:03;99793.41;;;19.43;74.97
18819;BME280;9537;45.594;9.294;2023-06-01T02:20:05;99794.34;;;19.49;74.69
18819;BME280;9537;45.594;9.294;2023-06-01T02:21:07;99790.38;;;19.51;74.77
18819;BME280;9537;45.594;9.294;2023-06-01T02:22:09;99790.38;;;19.51;74.25
18819;BME280;9537;45.594;9.294;2023-06-01T02:23:11;99791.09;;;19.47;74.50
18819;BME280;9537;45.594;9.294;2023-06-01T02:24:12;99788.03;;;19.43;74.78
18819;BME280;9537;45.594;9.294;2023-06-01T02:25:14;99787.44;;;19.41;74.72
18819;BME280;9537;45.594;9.294;2023-06-01T02:26:16;99784.41;;;19.38;74.94
18819;BME280;9537;45.594;9.294;2023-06-01T02:27:17;99795.34;;;19.36;75.08
18819;BME280;9537;45.594;9.294;2023-06-01T02:28:19;99791.84;;;19.35;75.26
18819;BME280;9537;45.594;9.294;2023-06-01T02:29:20;99787.31;;;19.36;75.22
18819;BME280;9537;45.594;9.294;2023-06-01T02:30:24;99785.69;;;19.35;74.91
18819;BME280;9537;45.594;9.294;2023-06-01T02:31:25;99786.72;;;19.34;74.85
18819;BME280;9537;45.594;9.294;2023-06-01T02:32:27;99784.03;;;19.34;74.64
18819;BME280;9537;45.594;9.294;2023-06-01T02:33:31;99786.94;;;19.32;74.82
18819;BME280;9537;45.594;9.294;2023-06-01T02:34:33;99792.91;;;19.34;74.65
18819;BME280;9537;45.594;9.294;2023-06-01T02:35:34;99786.50;;;19.35;74.62
18819;BME280;9537;45.594;9.294;2023-06-01T02:36:36;99790.22;;;19.34;74.20
18819;BME280;9537;45.594;9.294;2023-06-01T02:37:37;99792.31;;;19.32;74.50
18819;BME280;9537;45.594;9.294;2023-06-01T02:38:39;99790.44;;;19.33;74.48
18819;BME280;9537;45.594;9.294;2023-06-01T02:39:40;99785.69;;;19.35;74.31
18819;BME280;9537;45.594;9.294;2023-06-01T02:40:42;99790.44;;;19.33;74.60
18819;BME280;9537;45.594;9.294;2023-06-01T02:41:43;99789.38;;;19.34;74.36
18819;BME280;9537;45.594;9.294;2023-06-01T02:42:45;99785.69;;;19.35;74.17
18819;BME280;9537;45.594;9.294;2023-06-01T02:43:46;99782.63;;;19.31;74.00
18819;BME280;9537;45.594;9.294;2023-06-01T02:44:48;99784.41;;;19.38;73.79
18819;BME280;9537;45.594;9.294;2023-06-01T02:45:50;99775.44;;;19.32;74.07
18819;BME280;9537;45.594;9.294;2023-06-01T02:46:52;99774.59;;;19.31;74.20
18819;BME280;9537;45.594;9.294;2023-06-01T02:47:53;99773.56;;;19.32;74.17
18819;BME280;9537;45.594;9.294;2023-06-01T02:48:55;99772.16;;;19.30;74.43
18819;BME280;9537;45.594;9.294;2023-06-01T02:49:56;99772.97;;;19.30;74.51
18819;BME280;9537;45.594;9.294;2023-06-01T02:50:58;99772.59;;;19.27;74.79
18819;BME280;9537;45.594;9.294;2023-06-01T02:51:59;99772.25;;;19.23;74.95
18819;BME280;9537;45.594;9.294;2023-06-01T02:53:01;99772.69;;;19.20;75.02
18819;BME280;9537;45.594;9.294;2023-06-01T02:54:02;99768.16;;;19.21;75.23
18819;BME280;9537;45.594;9.294;2023-06-01T02:55:05;99773.72;;;19.19;75.45
18819;BME280;9537;45.594;9.294;2023-06-01T02:56:06;99771.50;;;19.16;75.50
18819;BME280;9537;45.594;9.294;2023-06-01T02:57:08;99763.31;;;19.11;75.50
18819;BME280;9537;45.594;9.294;2023-06-01T02:58:09;99769.13;;;19.08;75.41
18819;BME280;9537;45.594;9.294;2023-06-01T02:59:16;99764.69;;;19.02;75.46
18819;BME280;9537;45.594;9.294;2023-06-01T03:00:17;99758.88;;;19.05;75.51
18819;BME280;9537;45.594;9.294;2023-06-01T03:01:21;99763.22;;;19.06;75.46
18819;BME280;9537;45.594;9.294;2023-06-01T03:02:22;99762.38;;;19.05;75.66
18819;BME280;9537;45.594;9.294;2023-06-01T03:03:24;99763.22;;;19.06;75.52
18819;BME280;9537;45.594;9.294;2023-06-01T03:04:25;99762.16;;;19.07;75.53
18819;BME280;9537;45.594;9.294;2023-06-01T03:05:29;99763.78;;;19.08;75.40
18819;BME280;9537;45.594;9.294;2023-06-01T03:06:30;99767.66;;;19.12;75.25
18819;BME280;9537;45.594;9.294;2023-06-01T03:07:36;99767.66;;;19.12;75.31
18819;BME280;9537;45.594;9.294;2023-06-01T03:08:37;99768.47;;;19.12;75.70
18819;BME280;9537;45.594;9.294;2023-06-01T03:09:39;99766.84;;;19.11;75.28
18819;BME280;9537;45.594;9.294;2023-06-01T03:10:40;99762.66;;;19.16;75.46
18819;BME280;9537;45.594;9.294;2023-06-01T03:11:42;99761.59;;;19.17;75.59
18819;BME280;9537;45.594;9.294;2023-06-01T03:12:43;99763.72;;;19.15;75.61
18819;BME280;9537;45.594;9.294;2023-06-01T03:13:45;99764.38;;;19.10;76.10
18819;BME280;9537;45.594;9.294;2023-06-01T03:14:46;99760.91;;;19.09;76.32
18819;BME280;9537;45.594;9.294;2023-06-01T03:15:48;99767.88;;;19.10;76.67
18819;BME280;9537;45.594;9.294;2023-06-01T03:16:52;99759.47;;;19.07;76.78
18819;BME280;9537;45.594;9.294;2023-06-01T03:17:54;99769.13;;;19.08;76.85
18819;BME280;9537;45.594;9.294;2023-06-01T03:18:55;99762.97;;;19.07;76.72
18819;BME280;9537;45.594;9.294;2023-06-01T03:19:56;99771.81;;;19.08;76.64
18819;BME280;9537;45.594;9.294;2023-06-01T03:20:57;99756.81;;;19.07;76.54
18819;BME280;9537;45.594;9.294;2023-06-01T03:21:59;99755.41;;;19.04;76.36
18819;BME280;9537;45.594;9.294;2023-06-01T03:23:00;99758.88;;;19.05;76.18
18819;BME280;9537;45.594;9.294;2023-06-01T03:24:02;99761.56;;;19.05;76.15
18819;BME280;9537;45.594;9.294;2023-06-01T03:25:05;99762.97;;;19.07;76.08
18819;BME280;9537;45.594;9.294;2023-06-01T03:26:07;99760.44;;;19.12;76.17
18819;BME280;9537;45.594;9.294;2023-06-01T03:27:08;99756.50;;;19.15;75.97
18819;BME280;9537;45.594;9.294;2023-06-01T03:28:11;99764.75;;;19.13;76.12
18819;BME280;9537;45.594;9.294;2023-06-01T03:29:12;99755.28;;;19.11;76.21
18819;BME280;9537;45.594;9.294;2023-06-01T03:30:14;99759.63;;;19.12;76.23
18819;BME280;9537;45.594;9.294;2023-06-01T03:31:15;99755.53;;;19.09;76.75
18819;BME280;9537;45.594;9.294;2023-06-01T03:32:19;99766.84;;;19.11;76.53
18819;BME280;9537;45.594;9.294;2023-06-01T03:33:20;99753.00;;;19.15;76.61
18819;BME280;9537;45.594;9.294;2023-06-01T03:34:22;99761.50;;;19.11;76.50
18819;BME280;9537;45.594;9.294;2023-06-01T03:35:23;99754.72;;;19.09;76.90
18819;BME280;9537;45.594;9.294;2023-06-01T03:36:25;99759.47;;;19.07;76.88
18819;BME280;9537;45.594;9.294;2023-06-01T03:37:27;99767.06;;;19.10;76.86
18819;BME280;9537;45.594;9.294;2023-06-01T03:38:27;99758.38;;;19.15;76.61
18819;BME280;9537;45.594;9.294;2023-06-01T03:39:29;99766.16;;;19.16;76.47
18819;BME280;9537;45.594;9.294;2023-06-01T03:40:34;99774.19;;;19.16;76.29
18819;BME280;9537;45.594;9.294;2023-06-01T03:41:36;99765.78;;;19.12;76.90
18819;BME280;9537;45.594;9.294;2023-06-01T03:42:37;99763.13;;;19.12;76.66
18819;BME280;9537;45.594;9.294;2023-06-01T03:43:39;99766.59;;;19.13;77.11
18819;BME280;9537;45.594;9.294;2023-06-01T03:44:40;99769.53;;;19.11;77.15
18819;BME280;9537;45.594;9.294;2023-06-01T03:45:42;99769.94;;;19.08;76.49
18819;BME280;9537;45.594;9.294;2023-06-01T03:46:43;99771.00;;;19.07;76.58
18819;BME280;9537;45.594;9.294;2023-06-01T03:47:47;99762.75;;;19.09;76.53
18819;BME280;9537;45.594;9.294;2023-06-01T03:48:48;99773.47;;;19.09;76.54
18819;BME280;9537;45.594;9.294;2023-06-01T03:49:51;99766.47;;;19.08;76.49
18819;BME280;9537;45.594;9.294;2023-06-01T03:50:52;99764.59;;;19.08;76.27
18819;BME280;9537;45.594;9.294;2023-06-01T03:51:54;99766.47;;;19.08;76.44
18819;BME280;9537;45.594;9.294;2023-06-01T03:52:55;99770.78;;;19.09;76.82
18819;BME280;9537;45.594;9.294;2023-06-01T03:53:57;99772.41;;;19.10;76.91
18819;BME280;9537;45.594;9.294;2023-06-01T03:54:59;99773.00;;;19.12;76.92
18819;BME280;9537;45.594;9.294;2023-06-01T03:56:02;99771.34;;;19.11;77.16
18819;BME280;9537;45.594;9.294;2023-06-01T03:57:04;99776.06;;;19.16;77.08
18819;BME280;9537;45.594;9.294;2023-06-01T03:58:06;99772.56;;;19.15;76.96
18819;BME280;9537;45.594;9.294;2023-06-01T03:59:08;99777.31;;;19.13;76.83
18819;BME280;9537;45.594;9.294;2023-06-01T04:00:11;99775.91;;;19.10;77.27
18819;BME280;9537;45.594;9.294;2023-06-01T04:01:18;99774.88;;;19.11;77.30
18819;BME280;9537;45.594;9.294;2023-06-01T04:02:20;99771.59;;;19.09;77.97
18819;BME280;9537;45.594;9.294;2023-06-01T04:03:24;99767.41;;;19.13;77.62
18819;BME280;9537;45.594;9.294;2023-06-01T04:04:28;99771.34;;;19.11;77.71
18819;BME280;9537;45.594;9.294;2023-06-01T04:05:29;99775.31;;;19.08;78.46
18819;BME280;9537;45.594;9.294;2023-06-01T04:06:31;99773.69;;;19.07;78.30
18819;BME280;9537;45.594;9.294;2023-06-01T04:07:36;99774.50;;;19.08;78.13
18819;BME280;9537;45.594;9.294;2023-06-01T04:08:38;99777.31;;;19.13;78.21
18819;BME280;9537;45.594;9.294;2023-06-01T04:09:48;99777.78;;;19.10;78.41
18819;BME280;9537;45.594;9.294;2023-06-01T04:10:50;99774.28;;;19.09;78.22
18819;BME280;9537;45.594;9.294;2023-06-01T04:11:52;99778.22;;;19.07;78.39
18819;BME280;9537;45.594;9.294;2023-06-01T04:12:53;99779.84;;;19.08;78.50
18819;BME280;9537;45.594;9.294;2023-06-01T04:13:55;99779.38;;;19.11;78.44
18819;BME280;9537;45.594;9.294;2023-06-01T04:14:56;99785.59;;;19.11;78.39
18819;BME280;9537;45.594;9.294;2023-06-01T04:15:58;99781.50;;;19.09;78.32
18819;BME280;9537;45.594;9.294;2023-06-01T04:16:59;99778.44;;;19.05;78.88
18819;BME280;9537;45.594;9.294;2023-06-01T04:18:01;99781.94;;;19.06;78.86
18819;BME280;9537;45.594;9.294;2023-06-01T04:19:04;99779.63;;;19.09;78.84
18819;BME280;9537;45.594;9.294;2023-06-01T04:20:07;99778.72;;;19.16;78.69
18819;BME280;9537;45.594;9.294;2023-06-01T04:21:10;99788.38;;;19.17;78.36
18819;BME280;9537;45.594;9.294;2023-06-01T04:22:11;99783.28;;;19.15;78.62
18819;BME280;9537;45.594;9.294;2023-06-01T04:23:13;99784.53;;;19.12;78.80
18819;BME280;9537;45.594;9.294;2023-06-01T04:24:14;99782.66;;;19.13;78.91
18819;BME280;9537;45.594;9.294;2023-06-01T04:25:16;99787.22;;;19.12;78.88
18819;BME280;9537;45.594;9.294;2023-06-01T04:26:18;99779.78;;;19.15;78.60
18819;BME280;9537;45.594;9.294;2023-06-01T04:27:19;99784.09;;;19.16;78.19
18819;BME280;9537;45.594;9.294;2023-06-01T04:28:21;99778.72;;;19.16;78.29
18819;BME280;9537;45.594;9.294;2023-06-01T04:29:25;99780.34;;;19.17;78.56
18819;BME280;9537;45.594;9.294;2023-06-01T04:30:26;99780.13;;;19.18;78.82
18819;BME280;9537;45.594;9.294;2023-06-01T04:31:28;99782.00;;;19.18;79.46
18819;BME280;9537;45.594;9.294;2023-06-01T04:32:29;99781.41;;;19.16;79.44
18819;BME280;9537;45.594;9.294;2023-06-01T04:33:31;99777.66;;;19.17;79.93
18819;BME280;9537;45.594;9.294;2023-06-01T04:34:34;99775.22;;;19.15;80.55
18819;BME280;9537;45.594;9.294;2023-06-01T04:35:36;99776.84;;;19.16;80.41
18819;BME280;9537;45.594;9.294;2023-06-01T04:36:37;99773.72;;;19.19;80.51
18819;BME280;9537;45.594;9.294;2023-06-01T04:37:41;99779.69;;;19.21;80.90
18819;BME280;9537;45.594;9.294;2023-06-01T04:38:42;99774.31;;;19.21;80.75
18819;BME280;9537;45.594;9.294;2023-06-01T04:39:44;99776.19;;;19.21;81.09
18819;BME280;9537;45.594;9.294;2023-06-01T04:40:49;99777.59;;;19.23;81.49
18819;BME280;9537;45.594;9.294;2023-06-01T04:41:54;99770.97;;;19.26;81.43
18819;BME280;9537;45.594;9.294;2023-06-01T04:42:56;99771.78;;;19.26;81.57
18819;BME280;9537;45.594;9.294;2023-06-01T04:43:57;99779.81;;;19.26;81.51
18819;BME280;9537;45.594;9.294;2023-06-01T04:44:58;99784.38;;;19.26;81.39
18819;BME280;9537;45.594;9.294;2023-06-01T04:46:00;99771.78;;;19.26;81.28
18819;BME280;9537;45.594;9.294;2023-06-01T04:47:05;99777.16;;;19.26;80.82
18819;BME280;9537;45.594;9.294;2023-06-01T04:48:06;99777.97;;;19.27;79.94
18819;BME280;9537;45.594;9.294;2023-06-01T04:49:09;99772.97;;;19.30;79.57
18819;BME280;9537;45.594;9.294;2023-06-01T04:50:14;99782.88;;;19.30;79.37
18819;BME280;9537;45.594;9.294;2023-06-01T04:51:15;99778.31;;;19.30;78.78
18819;BME280;9537;45.594;9.294;2023-06-01T04:52:20;99775.63;;;19.30;78.54
18819;BME280;9537;45.594;9.294;2023-06-01T04:53:21;99777.06;;;19.33;77.82
18819;BME280;9537;45.594;9.294;2023-06-01T04:54:23;99776.25;;;19.32;77.54
18819;BME280;9537;45.594;9.294;2023-06-01T04:55:24;99780.31;;;19.35;77.93
18819;BME280;9537;45.594;9.294;2023-06-01T04:56:26;99770.44;;;19.35;77.46
18819;BME280;9537;45.594;9.294;2023-06-01T04:57:27;99772.06;;;19.36;77.49
18819;BME280;9537;45.594;9.294;2023-06-01T04:58:29;99776.94;;;19.40;77.28
18819;BME280;9537;45.594;9.294;2023-06-01T04:59:30;99773.25;;;19.41;76.95
18819;BME280;9537;45.594;9.294;2023-06-01T05:00:32;99773.00;;;19.42;76.50
18819;BME280;9537;45.594;9.294;2023-06-01T05:01:33;99769.06;;;19.45;76.67
18819;BME280;9537;45.594;9.294;2023-06-01T05:02:35;99776.03;;;19.46;76.12
18819;BME280;9537;45.594;9.294;2023-06-01T05:03:36;99770.25;;;19.49;76.34
18819;BME280;9537;45.594;9.294;2023-06-01T05:04:38;99768.38;;;19.49;75.76
18819;BME280;9537;45.594;9.294;2023-06-01T05:05:40;99766.72;;;19.48;75.99
18819;BME280;9537;45.594;9.294;2023-06-01T05:06:42;99770.81;;;19.51;75.70
18819;BME280;9537;45.594;9.294;2023-06-01T05:07:43;99769.34;;;19.55;75.63
18819;BME280;9537;45.594;9.294;2023-06-01T05:08:45;99771.75;;;19.56;75.05
18819;BME280;9537;45.594;9.294;2023-06-01T05:09:46;99772.81;;;19.55;74.35
18819;BME280;9537;45.594;9.294;2023-06-01T05:10:48;99768.28;;;19.56;73.98
18819;BME280;9537;45.594;9.294;2023-06-01T05:11:49;99765.59;;;19.56;73.76
18819;BME280;9537;45.594;9.294;2023-06-01T05:12:51;99770.75;;;19.57;73.75
18819;BME280;9537;45.594;9.294;2023-06-01T05:13:52;99769.44;;;19.60;73.93
18819;BME280;9537;45.594;9.294;2023-06-01T05:14:58;99764.69;;;19.62;73.62
18819;BME280;9537;45.594;9.294;2023-06-01T05:15:59;99766.34;;;19.63;73.68
18819;BME280;9537;45.594;9.294;2023-06-01T05:17:01;99771.44;;;19.65;73.85
18819;BME280;9537;45.594;9.294;2023-06-01T05:18:02;99768.75;;;19.65;73.94
18819;BME280;9537;45.594;9.294;2023-06-01T05:19:04;99776.38;;;19.68;73.88
18819;BME280;9537;45.594;9.294;2023-06-01T05:20:07;99769.16;;;19.68;73.71
18819;BME280;9537;45.594;9.294;2023-06-01T05:21:13;99774.03;;;19.71;73.80
18819;BME280;9537;45.594;9.294;2023-06-01T05:22:15;99769.28;;;19.73;73.68
18819;BME280;9537;45.594;9.294;2023-06-01T05:23:16;99771.75;;;19.75;73.00
18819;BME280;9537;45.594;9.294;2023-06-01T05:24:18;99772.56;;;19.75;72.76
18819;BME280;9537;45.594;9.294;2023-06-01T05:25:20;99768.00;;;19.76;72.37
18819;BME280;9537;45.594;9.294;2023-06-01T05:26:21;99768.81;;;19.76;72.56
18819;BME280;9537;45.594;9.294;2023-06-01T05:27:23;99775.38;;;19.80;72.41
18819;BME280;9537;45.594;9.294;2023-06-01T05:28:24;99764.19;;;19.84;72.21
18819;BME280;9537;45.594;9.294;2023-06-01T05:29:26;99769.06;;;19.87;71.91
18819;BME280;9537;45.594;9.294;2023-06-01T05:30:28;99768.84;;;19.88;72.48
18819;BME280;9537;45.594;9.294;2023-06-01T05:31:28;99772.34;;;19.89;72.66
18819;BME280;9537;45.594;9.294;2023-06-01T05:32:31;99766.75;;;19.90;73.26
18819;BME280;9537;45.594;9.294;2023-06-01T05:33:32;99772.44;;;19.94;73.04
18819;BME280;9537;45.594;9.294;2023-06-01T05:34:34;99775.72;;;19.96;72.58
18819;BME280;9537;45.594;9.294;2023-06-01T05:35:35;99779.22;;;19.96;72.77
18819;BME280;9537;45.594;9.294;2023-06-01T05:36:39;99770.97;;;19.98;73.05